sensor_id;sensor_type;location;lat;lon;timestamp;temperature;humidity
69533;DHT22;56729;52.036;5.332;2023-02-01T00:00:54;5.40;99.90
69533;DHT22;56729;52.036;5.332;2023-02-01T00:01:56;5.40;99.90
69533;DHT22;56729;52.036;5.332;2023-02-01T00:02:58;5.40;99.90
69533;DHT22;56729;52.036;5.332;2023-02-01T00:03:59;5.40;99.90
69533;DHT22;56729;52.036;5.332;2023-02-01T00:05:01;5.40;99.90
69533;DHT22;56729;52.036;5.332;2023-02-01T00:06:03;5.50;99.90
69533;DHT22;56729;52.036;5.332;2023-02-01T00:07:05;5.50;99.90
69533;DHT22;56729;52.036;5.332;2023-02-01T00:08:08;5.50;99.90
69533;DHT22;56729;52.036;5.332;2023-02-01T00:09:10;5.50;99.90
69533;DHT22;56729;52.036;5.332;2023-02-01T00:10:12;5.50;99.90
69533;DHT22;56729;52.036;5.332;2023-02-01T00:11:14;5.50;99.90
69533;DHT22;56729;52.036;5.332;2023-02-01T00:12:16;5.50;99.90
69533;DHT22;56729;52.036;5.332;2023-02-01T00:13:18;5.50;99.90
69533;DHT22;56729;52.036;5.332;2023-02-01T00:14:20;5.50;99.90
69533;DHT22;56729;52.036;5.332;2023-02-01T00:15:21;5.50;99.90
69533;DHT22;56729;52.036;5.332;2023-02-01T00:16:27;5.50;99.90
69533;DHT22;56729;52.036;5.332;2023-02-01T00:17:29;5.50;99.90
69533;DHT22;56729;52.036;5.332;2023-02-01T00:18:31;5.50;99.90
69533;DHT22;56729;52.036;5.332;2023-02-01T00:19:33;5.50;99.90
69533;DHT22;56729;52.036;5.332;2023-02-01T00:20:36;5.50;99.90
69533;DHT22;56729;52.036;5.332;2023-02-01T00:21:37;5.50;99.90
69533;DHT22;56729;52.036;5.332;2023-02-01T00:22:39;5.50;99.90
69533;DHT22;56729;52.036;5.332;2023-02-01T00:23:41;5.50;99.90
69533;DHT22;56729;52.036;5.332;2023-02-01T00:24:43;5.50;99.90
69533;DHT22;56729;52.036;5.332;2023-02-01T00:25:45;5.50;99.90
69533;DHT22;56729;52.036;5.332;2023-02-01T00:26:47;5.50;99.90
69533;DHT22;56729;52.036;5.332;2023-02-01T00:27:51;5.50;99.90
69533;DHT22;56729;52.036;5.332;2023-02-01T00:28:53;5.50;99.90
69533;DHT22;56729;52.036;5.332;2023-02-01T00:29:55;5.50;99.90
69533;DHT22;56729;52.036;5.332;2023-02-01T00:30:58;5.50;99.90
69533;DHT22;56729;52.036;5.332;2023-02-01T00:32:00;5.50;99.90
69533;DHT22;56729;52.036;5.332;2023-02-01T00:33:02;5.50;99.90
69533;DHT22;56729;52.036;5.332;2023-02-01T00:34:04;5.50;99.90
69533;DHT22;56729;52.036;5.332;2023-02-01T00:35:07;5.50;99.90
69533;DHT22;56729;52.036;5.332;2023-02-01T00:36:10;5.50;99.90
69533;DHT22;56729;52.036;5.332;2023-02-01T00:37:12;5.40;99.90
69533;DHT22;56729;52.036;5.332;2023-02-01T00:38:13;5.40;99.90
69533;DHT22;56729;52.036;5.332;2023-02-01T00:39:15;5.40;99.90
69533;DHT22;56729;52.036;5.332;2023-02-01T00:40:17;5.40;99.90
69533;DHT22;56729;52.036;5.332;2023-02-01T00:41:21;5.40;99.90
69533;DHT22;56729;52.036;5.332;2023-02-01T00:42:23;5.40;99.90
69533;DHT22;56729;52.036;5.332;2023-02-01T00:43:25;5.30;99.90
69533;DHT22;56729;52.036;5.332;2023-02-01T00:44:27;5.40;99.90
69533;DHT22;56729;52.036;5.332;2023-02-01T00:45:29;5.30;99.90
69533;DHT22;56729;52.036;5.332;2023-02-01T00:46:31;5.40;99.90
69533;DHT22;56729;52.036;5.332;2023-02-01T00:47:35;5.40;99.90
69533;DHT22;56729;52.036;5.332;2023-02-01T00:48:37;5.40;99.90
69533;DHT22;56729;52.036;5.332;2023-02-01T00:49:39;5.40;99.90
69533;DHT22;56729;52.036;5.332;2023-02-01T00:50:42;5.40;99.90
69533;DHT22;56729;52.036;5.332;2023-02-01T00:51:44;5.40;99.90
69533;DHT22;56729;52.036;5.332;2023-02-01T00:52:46;5.40;99.90
69533;DHT22;56729;52.036;5.332;2023-02-01T00:53:48;5.40;99.90
69533;DHT22;56729;52.036;5.332;2023-02-01T00:54:50;5.40;99.90
69533;DHT22;56729;52.036;5.332;2023-02-01T00:55:52;5.40;99.90
69533;DHT22;56729;52.036;5.332;2023-02-01T00:56:54;5.50;99.90
69533;DHT22;56729;52.036;5.332;2023-02-01T00:57:56;5.40;99.90
69533;DHT22;56729;52.036;5.332;2023-02-01T00:58:57;5.40;99.90
69533;DHT22;56729;52.036;5.332;2023-02-01T00:59:59;5.40;99.90
69533;DHT22;56729;52.036;5.332;2023-02-01T01:01:02;5.40;99.90
69533;DHT22;56729;52.036;5.332;2023-02-01T01:02:05;5.40;99.90
69533;DHT22;56729;52.036;5.332;2023-02-01T01:03:07;5.40;99.90
69533;DHT22;56729;52.036;5.332;2023-02-01T01:04:19;5.40;99.90
69533;DHT22;56729;52.036;5.332;2023-02-01T01:05:21;5.40;99.90
69533;DHT22;56729;52.036;5.332;2023-02-01T01:06:26;5.40;99.90
69533;DHT22;56729;52.036;5.332;2023-02-01T01:07:28;5.50;99.90
69533;DHT22;56729;52.036;5.332;2023-02-01T01:08:30;5.50;99.90
69533;DHT22;56729;52.036;5.332;2023-02-01T01:09:34;5.50;99.90
69533;DHT22;56729;52.036;5.332;2023-02-01T01:10:36;5.50;99.90
69533;DHT22;56729;52.036;5.332;2023-02-01T01:11:38;5.50;99.90
69533;DHT22;56729;52.036;5.332;2023-02-01T01:12:40;5.50;99.90
69533;DHT22;56729;52.036;5.332;2023-02-01T01:13:42;5.50;99.90
69533;DHT22;56729;52.036;5.332;2023-02-01T01:14:45;5.60;99.90
69533;DHT22;56729;52.036;5.332;2023-02-01T01:15:46;5.60;99.90
69533;DHT22;56729;52.036;5.332;2023-02-01T01:16:48;5.60;99.90
69533;DHT22;56729;52.036;5.332;2023-02-01T01:17:52;5.60;99.90
69533;DHT22;56729;52.036;5.332;2023-02-01T01:18:54;5.70;99.90
69533;DHT22;56729;52.036;5.332;2023-02-01T01:19:57;5.70;99.90
69533;DHT22;56729;52.036;5.332;2023-02-01T01:21:00;5.70;99.90
69533;DHT22;56729;52.036;5.332;2023-02-01T01:22:02;5.80;99.90
69533;DHT22;56729;52.036;5.332;2023-02-01T01:23:05;5.80;99.90
69533;DHT22;56729;52.036;5.332;2023-02-01T01:24:07;5.80;99.90
69533;DHT22;56729;52.036;5.332;2023-02-01T01:25:09;5.80;99.90
69533;DHT22;56729;52.036;5.332;2023-02-01T01:26:15;5.80;99.90
69533;DHT22;56729;52.036;5.332;2023-02-01T01:27:17;5.80;99.90
69533;DHT22;56729;52.036;5.332;2023-02-01T01:28:24;5.80;99.90
69533;DHT22;56729;52.036;5.332;2023-02-01T01:29:26;5.80;99.90
69533;DHT22;56729;52.036;5.332;2023-02-01T01:30:28;5.80;99.90
69533;DHT22;56729;52.036;5.332;2023-02-01T01:31:30;5.80;99.90
69533;DHT22;56729;52.036;5.332;2023-02-01T01:32:33;5.80;99.90
69533;DHT22;56729;52.036;5.332;2023-02-01T01:33:35;5.80;99.90
69533;DHT22;56729;52.036;5.332;2023-02-01T01:34:37;5.80;99.90
69533;DHT22;56729;52.036;5.332;2023-02-01T01:35:39;5.80;99.90
69533;DHT22;56729;52.036;5.332;2023-02-01T01:36:41;5.80;99.90
69533;DHT22;56729;52.036;5.332;2023-02-01T01:37:43;5.70;99.90
69533;DHT22;56729;52.036;5.332;2023-02-01T01:38:45;5.80;99.90
69533;DHT22;56729;52.036;5.332;2023-02-01T01:39:47;5.80;99.90
69533;DHT22;56729;52.036;5.332;2023-02-01T01:40:49;5.80;99.90
69533;DHT22;56729;52.036;5.332;2023-02-01T01:41:53;5.80;99.90
69533;DHT22;56729;52.036;5.332;2023-02-01T01:42:58;5.80;99.90
69533;DHT22;56729;52.036;5.332;2023-02-01T01:44:04;5.80;99.90
69533;DHT22;56729;52.036;5.332;2023-02-01T01:45:39;5.80;99.90
69533;DHT22;56729;52.036;5.332;2023-02-01T01:46:41;5.80;99.90
69533;DHT22;56729;52.036;5.332;2023-02-01T01:47:48;5.80;99.90
69533;DHT22;56729;52.036;5.332;2023-02-01T01:50:12;5.80;99.90
69533;DHT22;56729;52.036;5.332;2023-02-01T01:51:17;5.80;99.90
69533;DHT22;56729;52.036;5.332;2023-02-01T01:52:20;5.80;99.90
69533;DHT22;56729;52.036;5.332;2023-02-01T01:53:26;5.80;99.90
69533;DHT22;56729;52.036;5.332;2023-02-01T01:54:36;5.80;99.90
69533;DHT22;56729;52.036;5.332;2023-02-01T01:55:42;5.80;99.90
69533;DHT22;56729;52.036;5.332;2023-02-01T01:56:49;5.80;99.90
69533;DHT22;56729;52.036;5.332;2023-02-01T01:58:05;5.80;99.90
69533;DHT22;56729;52.036;5.332;2023-02-01T01:59:08;5.80;99.90
69533;DHT22;56729;52.036;5.332;2023-02-01T02:00:13;5.90;99.90
69533;DHT22;56729;52.036;5.332;2023-02-01T02:01:17;5.90;99.90
69533;DHT22;56729;52.036;5.332;2023-02-01T02:02:19;5.90;99.90
69533;DHT22;56729;52.036;5.332;2023-02-01T02:03:22;5.90;99.90
69533;DHT22;56729;52.036;5.332;2023-02-01T02:04:25;5.90;99.90
69533;DHT22;56729;52.036;5.332;2023-02-01T02:05:27;5.90;99.90
69533;DHT22;56729;52.036;5.332;2023-02-01T02:07:47;5.90;99.90
69533;DHT22;56729;52.036;5.332;2023-02-01T02:08:49;5.90;99.90
69533;DHT22;56729;52.036;5.332;2023-02-01T02:09:51;5.90;99.90
69533;DHT22;56729;52.036;5.332;2023-02-01T02:11:02;6.00;99.90
69533;DHT22;56729;52.036;5.332;2023-02-01T02:12:04;6.00;99.90
69533;DHT22;56729;52.036;5.332;2023-02-01T02:13:06;6.00;99.90
69533;DHT22;56729;52.036;5.332;2023-02-01T02:14:10;6.00;99.90
69533;DHT22;56729;52.036;5.332;2023-02-01T02:15:14;6.00;99.90
69533;DHT22;56729;52.036;5.332;2023-02-01T02:16:52;6.10;99.90
69533;DHT22;56729;52.036;5.332;2023-02-01T02:18:10;6.10;99.90
69533;DHT22;56729;52.036;5.332;2023-02-01T02:19:40;6.10;99.90
69533;DHT22;56729;52.036;5.332;2023-02-01T02:24:21;6.20;99.90
69533;DHT22;56729;52.036;5.332;2023-02-01T02:25:53;6.20;99.90
69533;DHT22;56729;52.036;5.332;2023-02-01T02:32:40;6.30;99.90
69533;DHT22;56729;52.036;5.332;2023-02-01T02:34:07;6.30;99.90
69533;DHT22;56729;52.036;5.332;2023-02-01T02:35:43;6.30;99.90
69533;DHT22;56729;52.036;5.332;2023-02-01T02:37:02;6.40;99.90
69533;DHT22;56729;52.036;5.332;2023-02-01T02:39:36;6.40;99.90
69533;DHT22;56729;52.036;5.332;2023-02-01T02:41:59;6.40;99.90
69533;DHT22;56729;52.036;5.332;2023-02-01T02:43:31;6.50;99.90
69533;DHT22;56729;52.036;5.332;2023-02-01T02:45:13;6.50;99.90
69533;DHT22;56729;52.036;5.332;2023-02-01T02:46:48;6.50;99.90
69533;DHT22;56729;52.036;5.332;2023-02-01T02:48:25;6.50;99.90
69533;DHT22;56729;52.036;5.332;2023-02-01T02:49:44;6.50;99.90
69533;DHT22;56729;52.036;5.332;2023-02-01T02:51:30;6.50;99.90
69533;DHT22;56729;52.036;5.332;2023-02-01T02:53:18;6.50;99.90
69533;DHT22;56729;52.036;5.332;2023-02-01T02:54:43;6.60;99.90
69533;DHT22;56729;52.036;5.332;2023-02-01T02:55:51;6.60;99.90
69533;DHT22;56729;52.036;5.332;2023-02-01T02:56:56;6.60;99.90
69533;DHT22;56729;52.036;5.332;2023-02-01T02:58:19;6.60;99.90
69533;DHT22;56729;52.036;5.332;2023-02-01T02:59:44;6.70;99.90
69533;DHT22;56729;52.036;5.332;2023-02-01T03:01:07;6.70;99.90
69533;DHT22;56729;52.036;5.332;2023-02-01T03:02:28;6.70;99.90
69533;DHT22;56729;52.036;5.332;2023-02-01T03:03:49;6.70;99.90
69533;DHT22;56729;52.036;5.332;2023-02-01T03:05:12;6.80;99.90
69533;DHT22;56729;52.036;5.332;2023-02-01T03:06:16;6.80;99.90
69533;DHT22;56729;52.036;5.332;2023-02-01T03:08:50;6.90;99.90
69533;DHT22;56729;52.036;5.332;2023-02-01T03:09:55;6.90;99.90
69533;DHT22;56729;52.036;5.332;2023-02-01T03:12:12;6.90;99.90
69533;DHT22;56729;52.036;5.332;2023-02-01T03:14:53;6.90;99.90
69533;DHT22;56729;52.036;5.332;2023-02-01T03:17:20;6.90;99.90
69533;DHT22;56729;52.036;5.332;2023-02-01T03:19:36;6.90;99.90
69533;DHT22;56729;52.036;5.332;2023-02-01T03:20:43;6.90;99.90
69533;DHT22;56729;52.036;5.332;2023-02-01T03:22:08;6.90;99.90
69533;DHT22;56729;52.036;5.332;2023-02-01T03:23:13;6.90;99.90
69533;DHT22;56729;52.036;5.332;2023-02-01T03:24:21;6.90;99.90
69533;DHT22;56729;52.036;5.332;2023-02-01T03:25:30;6.90;99.90
69533;DHT22;56729;52.036;5.332;2023-02-01T03:26:36;7.00;99.90
69533;DHT22;56729;52.036;5.332;2023-02-01T03:27:46;7.00;99.90
69533;DHT22;56729;52.036;5.332;2023-02-01T03:29:02;7.00;99.90
69533;DHT22;56729;52.036;5.332;2023-02-01T03:31:24;7.00;99.90
69533;DHT22;56729;52.036;5.332;2023-02-01T03:32:26;7.00;99.90
69533;DHT22;56729;52.036;5.332;2023-02-01T03:33:29;6.90;99.90
69533;DHT22;56729;52.036;5.332;2023-02-01T03:34:33;6.90;99.90
69533;DHT22;56729;52.036;5.332;2023-02-01T03:36:03;6.90;99.90
69533;DHT22;56729;52.036;5.332;2023-02-01T03:37:10;6.90;99.90
69533;DHT22;56729;52.036;5.332;2023-02-01T03:38:25;6.90;99.90
69533;DHT22;56729;52.036;5.332;2023-02-01T03:42:37;6.80;99.90
69533;DHT22;56729;52.036;5.332;2023-02-01T03:44:13;6.80;99.90
69533;DHT22;56729;52.036;5.332;2023-02-01T03:45:20;6.70;99.90
69533;DHT22;56729;52.036;5.332;2023-02-01T03:46:58;6.70;99.90
69533;DHT22;56729;52.036;5.332;2023-02-01T03:48:02;6.70;99.90
69533;DHT22;56729;52.036;5.332;2023-02-01T03:49:08;6.70;99.90
69533;DHT22;56729;52.036;5.332;2023-02-01T03:50:17;6.70;99.90
69533;DHT22;56729;52.036;5.332;2023-02-01T03:51:20;6.70;99.90
69533;DHT22;56729;52.036;5.332;2023-02-01T03:52:29;6.70;99.90
69533;DHT22;56729;52.036;5.332;2023-02-01T03:53:33;6.70;99.90
69533;DHT22;56729;52.036;5.332;2023-02-01T03:54:40;6.60;99.90
69533;DHT22;56729;52.036;5.332;2023-02-01T03:55:43;6.60;99.90
69533;DHT22;56729;52.036;5.332;2023-02-01T03:56:46;6.60;99.90
69533;DHT22;56729;52.036;5.332;2023-02-01T03:57:57;6.60;99.90
69533;DHT22;56729;52.036;5.332;2023-02-01T03:59:00;6.60;99.90
69533;DHT22;56729;52.036;5.332;2023-02-01T04:00:22;6.60;99.90
69533;DHT22;56729;52.036;5.332;2023-02-01T04:01:29;6.70;99.90
69533;DHT22;56729;52.036;5.332;2023-02-01T04:02:33;6.70;99.90
69533;DHT22;56729;52.036;5.332;2023-02-01T04:03:35;6.70;99.90
69533;DHT22;56729;52.036;5.332;2023-02-01T04:04:37;6.70;99.90
69533;DHT22;56729;52.036;5.332;2023-02-01T04:05:39;6.70;99.90
69533;DHT22;56729;52.036;5.332;2023-02-01T04:06:42;6.70;99.90
69533;DHT22;56729;52.036;5.332;2023-02-01T04:07:44;6.70;99.90
69533;DHT22;56729;52.036;5.332;2023-02-01T04:08:46;6.70;99.90
69533;DHT22;56729;52.036;5.332;2023-02-01T04:09:48;6.70;99.90
69533;DHT22;56729;52.036;5.332;2023-02-01T04:10:50;6.80;99.90
69533;DHT22;56729;52.036;5.332;2023-02-01T04:11:52;6.80;99.90
69533;DHT22;56729;52.036;5.332;2023-02-01T04:12:54;6.80;99.90
69533;DHT22;56729;52.036;5.332;2023-02-01T04:13:56;6.80;99.90
69533;DHT22;56729;52.036;5.332;2023-02-01T04:14:57;6.80;99.90
69533;DHT22;56729;52.036;5.332;2023-02-01T04:15:59;6.90;99.90
69533;DHT22;56729;52.036;5.332;2023-02-01T04:17:01;6.90;99.90
69533;DHT22;56729;52.036;5.332;2023-02-01T04:18:03;6.90;99.90
69533;DHT22;56729;52.036;5.332;2023-02-01T04:19:05;6.90;99.90
69533;DHT22;56729;52.036;5.332;2023-02-01T04:20:08;6.90;99.90
69533;DHT22;56729;52.036;5.332;2023-02-01T04:21:10;6.90;99.90
69533;DHT22;56729;52.036;5.332;2023-02-01T04:22:12;7.00;99.90
69533;DHT22;56729;52.036;5.332;2023-02-01T04:23:14;7.00;99.90
69533;DHT22;56729;52.036;5.332;2023-02-01T04:24:17;7.00;99.90
69533;DHT22;56729;52.036;5.332;2023-02-01T04:25:19;7.00;99.90
69533;DHT22;56729;52.036;5.332;2023-02-01T04:26:22;7.00;99.90
69533;DHT22;56729;52.036;5.332;2023-02-01T04:27:23;7.00;99.90
69533;DHT22;56729;52.036;5.332;2023-02-01T04:28:29;7.00;99.90
69533;DHT22;56729;52.036;5.332;2023-02-01T04:29:31;7.10;99.90
69533;DHT22;56729;52.036;5.332;2023-02-01T04:30:33;7.10;99.90
69533;DHT22;56729;52.036;5.332;2023-02-01T04:31:34;7.10;99.90
69533;DHT22;56729;52.036;5.332;2023-02-01T04:32:38;7.10;99.90
69533;DHT22;56729;52.036;5.332;2023-02-01T04:33:40;7.10;99.90
69533;DHT22;56729;52.036;5.332;2023-02-01T04:34:42;7.10;99.90
69533;DHT22;56729;52.036;5.332;2023-02-01T04:35:44;7.10;99.90
69533;DHT22;56729;52.036;5.332;2023-02-01T04:36:46;7.10;99.90
69533;DHT22;56729;52.036;5.332;2023-02-01T04:37:48;7.10;99.90
69533;DHT22;56729;52.036;5.332;2023-02-01T04:38:50;7.10;99.90
69533;DHT22;56729;52.036;5.332;2023-02-01T04:39:52;7.10;99.90
69533;DHT22;56729;52.036;5.332;2023-02-01T04:40:54;7.10;99.90
69533;DHT22;56729;52.036;5.332;2023-02-01T04:41:56;7.10;99.90
69533;DHT22;56729;52.036;5.332;2023-02-01T04:42:58;7.20;99.90
69533;DHT22;56729;52.036;5.332;2023-02-01T04:43:59;7.10;99.90
69533;DHT22;56729;52.036;5.332;2023-02-01T04:45:02;7.20;99.90
69533;DHT22;56729;52.036;5.332;2023-02-01T04:46:04;7.20;99.90
69533;DHT22;56729;52.036;5.332;2023-02-01T04:47:06;7.20;99.90
69533;DHT22;56729;52.036;5.332;2023-02-01T04:48:08;7.20;99.90
69533;DHT22;56729;52.036;5.332;2023-02-01T04:49:10;7.20;99.90
69533;DHT22;56729;52.036;5.332;2023-02-01T04:50:12;7.20;99.90
69533;DHT22;56729;52.036;5.332;2023-02-01T04:51:14;7.20;99.90
69533;DHT22;56729;52.036;5.332;2023-02-01T04:52:16;7.20;99.90
69533;DHT22;56729;52.036;5.332;2023-02-01T04:53:18;7.20;99.90
69533;DHT22;56729;52.036;5.332;2023-02-01T04:54:20;7.20;99.90
69533;DHT22;56729;52.036;5.332;2023-02-01T04:55:22;7.20;99.90
69533;DHT22;56729;52.036;5.332;2023-02-01T04:56:24;7.20;99.90
69533;DHT22;56729;52.036;5.332;2023-02-01T04:57:25;7.20;99.90
69533;DHT22;56729;52.036;5.332;2023-02-01T04:58:27;7.20;99.90
69533;DHT22;56729;52.036;5.332;2023-02-01T04:59:29;7.20;99.90
69533;DHT22;56729;52.036;5.332;2023-02-01T05:00:31;7.20;99.90
69533;DHT22;56729;52.036;5.332;2023-02-01T05:01:33;7.20;99.90
69533;DHT22;56729;52.036;5.332;2023-02-01T05:02:35;7.20;99.90
69533;DHT22;56729;52.036;5.332;2023-02-01T05:03:37;7.20;99.90
69533;DHT22;56729;52.036;5.332;2023-02-01T05:04:38;7.20;99.90
69533;DHT22;56729;52.036;5.332;2023-02-01T05:05:40;7.20;99.90
69533;DHT22;56729;52.036;5.332;2023-02-01T05:06:42;7.20;99.90
69533;DHT22;56729;52.036;5.332;2023-02-01T05:07:45;7.20;99.90
69533;DHT22;56729;52.036;5.332;2023-02-01T05:08:48;7.20;99.90
69533;DHT22;56729;52.036;5.332;2023-02-01T05:09:50;7.20;99.90
69533;DHT22;56729;52.036;5.332;2023-02-01T05:10:53;7.20;99.90
69533;DHT22;56729;52.036;5.332;2023-02-01T05:11:54;7.20;99.90
69533;DHT22;56729;52.036;5.332;2023-02-01T05:13:15;7.20;99.90
69533;DHT22;56729;52.036;5.332;2023-02-01T05:14:35;7.20;99.90
69533;DHT22;56729;52.036;5.332;2023-02-01T05:15:37;7.20;99.90
69533;DHT22;56729;52.036;5.332;2023-02-01T05:16:39;7.10;99.90
69533;DHT22;56729;52.036;5.332;2023-02-01T05:17:41;7.10;99.90
69533;DHT22;56729;52.036;5.332;2023-02-01T05:18:43;7.10;99.90
69533;DHT22;56729;52.036;5.332;2023-02-01T05:19:45;7.10;99.90
69533;DHT22;56729;52.036;5.332;2023-02-01T05:20:47;7.10;99.90
69533;DHT22;56729;52.036;5.332;2023-02-01T05:21:48;7.10;99.90
69533;DHT22;56729;52.036;5.332;2023-02-01T05:22:50;7.10;99.90
69533;DHT22;56729;52.036;5.332;2023-02-01T05:23:52;7.10;99.90
69533;DHT22;56729;52.036;5.332;2023-02-01T05:25:15;7.10;99.90
69533;DHT22;56729;52.036;5.332;2023-02-01T05:26:17;7.10;99.90
69533;DHT22;56729;52.036;5.332;2023-02-01T05:27:19;7.10;99.90
69533;DHT22;56729;52.036;5.332;2023-02-01T05:28:21;7.10;99.90
69533;DHT22;56729;52.036;5.332;2023-02-01T05:29:22;7.10;99.90
69533;DHT22;56729;52.036;5.332;2023-02-01T05:30:24;7.10;99.90
69533;DHT22;56729;52.036;5.332;2023-02-01T05:31:27;7.10;99.90
69533;DHT22;56729;52.036;5.332;2023-02-01T05:32:29;7.10;99.90
69533;DHT22;56729;52.036;5.332;2023-02-01T05:33:31;7.10;99.90
69533;DHT22;56729;52.036;5.332;2023-02-01T05:34:33;7.10;99.90
69533;DHT22;56729;52.036;5.332;2023-02-01T05:35:34;7.10;99.90
69533;DHT22;56729;52.036;5.332;2023-02-01T05:36:36;7.10;99.90
69533;DHT22;56729;52.036;5.332;2023-02-01T05:37:38;7.10;99.90
69533;DHT22;56729;52.036;5.332;2023-02-01T05:38:40;7.10;99.90
69533;DHT22;56729;52.036;5.332;2023-02-01T05:39:42;7.10;99.90
69533;DHT22;56729;52.036;5.332;2023-02-01T05:40:44;7.10;99.90
69533;DHT22;56729;52.036;5.332;2023-02-01T05:41:51;7.10;99.90
69533;DHT22;56729;52.036;5.332;2023-02-01T05:42:53;7.10;99.90
69533;DHT22;56729;52.036;5.332;2023-02-01T05:43:55;7.00;99.90
69533;DHT22;56729;52.036;5.332;2023-02-01T05:44:56;7.00;99.90
69533;DHT22;56729;52.036;5.332;2023-02-01T05:45:58;7.10;99.90
69533;DHT22;56729;52.036;5.332;2023-02-01T05:47:00;7.00;99.90
69533;DHT22;56729;52.036;5.332;2023-02-01T05:48:02;7.10;99.90
69533;DHT22;56729;52.036;5.332;2023-02-01T05:49:04;7.10;99.90
69533;DHT22;56729;52.036;5.332;2023-02-01T05:50:07;7.00;99.90
69533;DHT22;56729;52.036;5.332;2023-02-01T05:51:10;7.00;99.90
69533;DHT22;56729;52.036;5.332;2023-02-01T05:52:12;7.10;99.90
69533;DHT22;56729;52.036;5.332;2023-02-01T05:53:14;7.10;99.90
69533;DHT22;56729;52.036;5.332;2023-02-01T05:54:16;7.10;99.90
69533;DHT22;56729;52.036;5.332;2023-02-01T05:55:18;7.10;99.90
69533;DHT22;56729;52.036;5.332;2023-02-01T05:56:20;7.10;99.90
69533;DHT22;56729;52.036;5.332;2023-02-01T05:57:22;7.10;99.90
69533;DHT22;56729;52.036;5.332;2023-02-01T05:58:24;7.10;99.90
69533;DHT22;56729;52.036;5.332;2023-02-01T05:59:25;7.10;99.90
69533;DHT22;56729;52.036;5.332;2023-02-01T06:00:27;7.10;99.90
69533;DHT22;56729;52.036;5.332;2023-02-01T06:01:29;7.10;99.90
69533;DHT22;56729;52.036;5.332;2023-02-01T06:02:31;7.10;99.90
69533;DHT22;56729;52.036;5.332;2023-02-01T06:03:33;7.10;99.90
69533;DHT22;56729;52.036;5.332;2023-02-01T06:04:35;7.10;99.90
69533;DHT22;56729;52.036;5.332;2023-02-01T06:05:37;7.10;99.90
69533;DHT22;56729;52.036;5.332;2023-02-01T06:06:39;7.10;99.90
69533;DHT22;56729;52.036;5.332;2023-02-01T06:07:40;7.10;99.90
69533;DHT22;56729;52.036;5.332;2023-02-01T06:08:42;7.10;99.90
69533;DHT22;56729;52.036;5.332;2023-02-01T06:09:44;7.10;99.90
69533;DHT22;56729;52.036;5.332;2023-02-01T06:10:46;7.10;99.90
69533;DHT22;56729;52.036;5.332;2023-02-01T06:11:48;7.10;99.90
69533;DHT22;56729;52.036;5.332;2023-02-01T06:12:50;7.10;99.90
69533;DHT22;56729;52.036;5.332;2023-02-01T06:13:52;7.10;99.90
69533;DHT22;56729;52.036;5.332;2023-02-01T06:14:54;7.10;99.90
69533;DHT22;56729;52.036;5.332;2023-02-01T06:15:55;7.10;99.90
69533;DHT22;56729;52.036;5.332;2023-02-01T06:16:59;7.10;99.90
69533;DHT22;56729;52.036;5.332;2023-02-01T06:18:01;7.10;99.90
69533;DHT22;56729;52.036;5.332;2023-02-01T06:19:03;7.10;99.90
69533;DHT22;56729;52.036;5.332;2023-02-01T06:20:05;7.10;99.90
69533;DHT22;56729;52.036;5.332;2023-02-01T06:21:08;7.10;99.90
69533;DHT22;56729;52.036;5.332;2023-02-01T06:22:10;7.10;99.90
69533;DHT22;56729;52.036;5.332;2023-02-01T06:23:12;7.10;99.90
69533;DHT22;56729;52.036;5.332;2023-02-01T06:24:15;7.10;99.90
69533;DHT22;56729;52.036;5.332;2023-02-01T06:25:17;7.10;99.90
69533;DHT22;56729;52.036;5.332;2023-02-01T06:26:19;7.10;99.90
69533;DHT22;56729;52.036;5.332;2023-02-01T06:27:21;7.10;99.90
69533;DHT22;56729;52.036;5.332;2023-02-01T06:28:23;7.10;99.90
69533;DHT22;56729;52.036;5.332;2023-02-01T06:29:25;7.10;99.90
69533;DHT22;56729;52.036;5.332;2023-02-01T06:30:28;7.00;99.90
69533;DHT22;56729;52.036;5.332;2023-02-01T06:31:30;7.00;99.90
69533;DHT22;56729;52.036;5.332;2023-02-01T06:32:33;7.00;99.90
69533;DHT22;56729;52.036;5.332;2023-02-01T06:33:36;7.00;99.90
69533;DHT22;56729;52.036;5.332;2023-02-01T06:34:38;7.00;99.90
69533;DHT22;56729;52.036;5.332;2023-02-01T06:35:42;7.00;99.90
69533;DHT22;56729;52.036;5.332;2023-02-01T06:36:45;7.00;99.90
69533;DHT22;56729;52.036;5.332;2023-02-01T06:37:47;7.00;99.90
69533;DHT22;56729;52.036;5.332;2023-02-01T06:38:48;7.00;99.90
69533;DHT22;56729;52.036;5.332;2023-02-01T06:39:51;7.00;99.90
69533;DHT22;56729;52.036;5.332;2023-02-01T06:40:53;7.00;99.90
69533;DHT22;56729;52.036;5.332;2023-02-01T06:41:56;7.00;99.90
69533;DHT22;56729;52.036;5.332;2023-02-01T06:42:58;6.90;99.90
69533;DHT22;56729;52.036;5.332;2023-02-01T06:44:00;6.90;99.90
69533;DHT22;56729;52.036;5.332;2023-02-01T06:45:02;7.00;99.90
69533;DHT22;56729;52.036;5.332;2023-02-01T06:46:06;6.90;99.90
69533;DHT22;56729;52.036;5.332;2023-02-01T06:47:08;6.90;99.90
69533;DHT22;56729;52.036;5.332;2023-02-01T06:48:10;6.90;99.90
69533;DHT22;56729;52.036;5.332;2023-02-01T06:49:12;6.90;99.90
69533;DHT22;56729;52.036;5.332;2023-02-01T06:50:14;6.90;99.90
69533;DHT22;56729;52.036;5.332;2023-02-01T06:51:25;6.90;99.90
69533;DHT22;56729;52.036;5.332;2023-02-01T06:52:27;6.90;99.90
69533;DHT22;56729;52.036;5.332;2023-02-01T06:53:29;6.80;99.90
69533;DHT22;56729;52.036;5.332;2023-02-01T06:54:31;6.80;99.90
69533;DHT22;56729;52.036;5.332;2023-02-01T06:55:35;6.90;99.90
69533;DHT22;56729;52.036;5.332;2023-02-01T06:56:37;6.80;99.90
69533;DHT22;56729;52.036;5.332;2023-02-01T06:57:40;6.80;99.90
69533;DHT22;56729;52.036;5.332;2023-02-01T06:58:41;6.80;99.90
69533;DHT22;56729;52.036;5.332;2023-02-01T06:59:43;6.80;99.90
69533;DHT22;56729;52.036;5.332;2023-02-01T07:00:45;6.80;99.90
69533;DHT22;56729;52.036;5.332;2023-02-01T07:01:47;6.80;99.90
69533;DHT22;56729;52.036;5.332;2023-02-01T07:02:50;6.80;99.90
69533;DHT22;56729;52.036;5.332;2023-02-01T07:03:52;6.80;99.90
69533;DHT22;56729;52.036;5.332;2023-02-01T07:04:54;6.80;99.90
69533;DHT22;56729;52.036;5.332;2023-02-01T07:05:56;6.80;99.90
69533;DHT22;56729;52.036;5.332;2023-02-01T07:07:02;6.80;99.90
69533;DHT22;56729;52.036;5.332;2023-02-01T07:08:04;6.80;99.90
69533;DHT22;56729;52.036;5.332;2023-02-01T07:09:06;6.80;99.90
69533;DHT22;56729;52.036;5.332;2023-02-01T07:10:09;6.80;99.90
69533;DHT22;56729;52.036;5.332;2023-02-01T07:11:13;6.90;99.90
69533;DHT22;56729;52.036;5.332;2023-02-01T07:12:15;6.80;99.90
69533;DHT22;56729;52.036;5.332;2023-02-01T07:13:17;6.90;99.90
69533;DHT22;56729;52.036;5.332;2023-02-01T07:14:19;6.90;99.90
69533;DHT22;56729;52.036;5.332;2023-02-01T07:15:21;6.90;99.90
69533;DHT22;56729;52.036;5.332;2023-02-01T07:16:26;6.90;99.90
69533;DHT22;56729;52.036;5.332;2023-02-01T07:17:29;6.90;99.90
69533;DHT22;56729;52.036;5.332;2023-02-01T07:18:31;6.90;99.90
69533;DHT22;56729;52.036;5.332;2023-02-01T07:19:34;6.90;99.90
69533;DHT22;56729;52.036;5.332;2023-02-01T07:20:36;7.00;99.90
69533;DHT22;56729;52.036;5.332;2023-02-01T07:21:38;7.00;99.90
69533;DHT22;56729;52.036;5.332;2023-02-01T07:22:40;7.00;99.90